sensor_id;sensor_type;location;lat;lon;timestamp;temperature;humidity
298;DHT22;133;49.626;9.680;2023-11-21T00:01:52;9.30;98.70
298;DHT22;133;49.626;9.680;2023-11-21T00:04:18;9.40;98.70
298;DHT22;133;49.626;9.680;2023-11-21T00:06:43;9.30;98.70
298;DHT22;133;49.626;9.680;2023-11-21T00:09:12;9.30;98.70
298;DHT22;133;49.626;9.680;2023-11-21T00:11:40;9.30;98.70
298;DHT22;133;49.626;9.680;2023-11-21T00:14:06;9.30;98.70
298;DHT22;133;49.626;9.680;2023-11-21T00:16:32;9.30;98.70
298;DHT22;133;49.626;9.680;2023-11-21T00:18:57;9.30;98.70
298;DHT22;133;49.626;9.680;2023-11-21T00:21:23;9.30;98.70
298;DHT22;133;49.626;9.680;2023-11-21T00:23:48;9.30;98.70
298;DHT22;133;49.626;9.680;2023-11-21T00:26:14;9.40;98.70
298;DHT22;133;49.626;9.680;2023-11-21T00:28:39;9.40;98.70
298;DHT22;133;49.626;9.680;2023-11-21T00:31:05;9.30;98.70
298;DHT22;133;49.626;9.680;2023-11-21T00:33:31;9.30;98.70
298;DHT22;133;49.626;9.680;2023-11-21T00:35:57;9.30;98.70
298;DHT22;133;49.626;9.680;2023-11-21T00:38:22;9.30;98.70
298;DHT22;133;49.626;9.680;2023-11-21T00:40:48;9.30;98.70
298;DHT22;133;49.626;9.680;2023-11-21T00:43:13;9.30;98.70
298;DHT22;133;49.626;9.680;2023-11-21T00:45:40;9.30;98.70
298;DHT22;133;49.626;9.680;2023-11-21T00:48:06;9.30;98.70
298;DHT22;133;49.626;9.680;2023-11-21T00:50:33;9.30;98.70
298;DHT22;133;49.626;9.680;2023-11-21T00:52:59;9.30;98.70
298;DHT22;133;49.626;9.680;2023-11-21T00:55:25;9.40;98.70
298;DHT22;133;49.626;9.680;2023-11-21T00:57:51;9.30;98.70
298;DHT22;133;49.626;9.680;2023-11-21T01:00:17;9.30;98.70
298;DHT22;133;49.626;9.680;2023-11-21T01:02:45;9.40;98.70
298;DHT22;133;49.626;9.680;2023-11-21T01:05:12;9.40;98.70
298;DHT22;133;49.626;9.680;2023-11-21T01:07:38;9.40;98.70
298;DHT22;133;49.626;9.680;2023-11-21T01:10:04;9.40;98.70
298;DHT22;133;49.626;9.680;2023-11-21T01:12:37;9.40;98.70
298;DHT22;133;49.626;9.680;2023-11-21T01:15:04;9.40;98.70
298;DHT22;133;49.626;9.680;2023-11-21T01:17:32;9.40;98.70
298;DHT22;133;49.626;9.680;2023-11-21T01:19:59;9.40;98.70
298;DHT22;133;49.626;9.680;2023-11-21T01:22:25;9.50;98.70
298;DHT22;133;49.626;9.680;2023-11-21T01:24:53;9.50;98.70
298;DHT22;133;49.626;9.680;2023-11-21T01:27:19;9.50;98.70
298;DHT22;133;49.626;9.680;2023-11-21T01:29:44;9.50;98.70
298;DHT22;133;49.626;9.680;2023-11-21T01:32:10;9.50;98.70
298;DHT22;133;49.626;9.680;2023-11-21T01:34:36;9.50;98.70
298;DHT22;133;49.626;9.680;2023-11-21T01:37:02;9.60;98.70
298;DHT22;133;49.626;9.680;2023-11-21T01:39:30;9.60;98.70
298;DHT22;133;49.626;9.680;2023-11-21T01:41:55;9.60;98.70
298;DHT22;133;49.626;9.680;2023-11-21T01:44:24;9.60;98.70
298;DHT22;133;49.626;9.680;2023-11-21T01:46:50;9.70;98.70
298;DHT22;133;49.626;9.680;2023-11-21T01:49:17;9.70;98.70
298;DHT22;133;49.626;9.680;2023-11-21T01:51:47;9.70;98.70
298;DHT22;133;49.626;9.680;2023-11-21T01:54:14;9.70;98.70
298;DHT22;133;49.626;9.680;2023-11-21T01:56:40;9.70;98.70
298;DHT22;133;49.626;9.680;2023-11-21T01:59:06;9.70;98.70
298;DHT22;133;49.626;9.680;2023-11-21T02:01:33;9.80;98.70
298;DHT22;133;49.626;9.680;2023-11-21T02:03:59;9.80;98.60
298;DHT22;133;49.626;9.680;2023-11-21T02:06:24;9.90;98.50
298;DHT22;133;49.626;9.680;2023-11-21T02:08:51;9.90;98.50
298;DHT22;133;49.626;9.680;2023-11-21T02:11:17;10.00;98.10
298;DHT22;133;49.626;9.680;2023-11-21T02:13:44;10.00;98.00
298;DHT22;133;49.626;9.680;2023-11-21T02:16:11;10.00;98.00
298;DHT22;133;49.626;9.680;2023-11-21T02:18:38;10.00;98.10
298;DHT22;133;49.626;9.680;2023-11-21T02:21:04;10.00;97.90
298;DHT22;133;49.626;9.680;2023-11-21T02:23:30;10.00;98.10
298;DHT22;133;49.626;9.680;2023-11-21T02:25:56;9.90;98.00
298;DHT22;133;49.626;9.680;2023-11-21T02:28:21;9.90;98.00
298;DHT22;133;49.626;9.680;2023-11-21T02:30:51;9.80;98.20
298;DHT22;133;49.626;9.680;2023-11-21T02:33:21;9.80;98.30
298;DHT22;133;49.626;9.680;2023-11-21T02:35:47;9.70;98.60
298;DHT22;133;49.626;9.680;2023-11-21T02:38:12;9.60;98.70
298;DHT22;133;49.626;9.680;2023-11-21T02:40:39;9.50;98.70
298;DHT22;133;49.626;9.680;2023-11-21T02:43:04;9.50;98.70
298;DHT22;133;49.626;9.680;2023-11-21T02:45:31;9.50;98.70
298;DHT22;133;49.626;9.680;2023-11-21T02:47:57;9.50;98.70
298;DHT22;133;49.626;9.680;2023-11-21T02:50:22;9.50;98.70
298;DHT22;133;49.626;9.680;2023-11-21T02:52:48;9.50;98.70
298;DHT22;133;49.626;9.680;2023-11-21T02:55:14;9.40;98.70
298;DHT22;133;49.626;9.680;2023-11-21T02:57:39;9.50;98.70
298;DHT22;133;49.626;9.680;2023-11-21T03:00:06;9.40;98.70
298;DHT22;133;49.626;9.680;2023-11-21T03:02:40;9.50;98.70
298;DHT22;133;49.626;9.680;2023-11-21T03:05:06;9.50;98.70
298;DHT22;133;49.626;9.680;2023-11-21T03:07:34;9.50;98.70
298;DHT22;133;49.626;9.680;2023-11-21T03:10:00;9.50;98.70
298;DHT22;133;49.626;9.680;2023-11-21T03:12:26;9.50;98.70
298;DHT22;133;49.626;9.680;2023-11-21T03:14:51;9.60;98.70
298;DHT22;133;49.626;9.680;2023-11-21T03:17:17;9.60;98.70
298;DHT22;133;49.626;9.680;2023-11-21T03:19:42;9.60;98.70
298;DHT22;133;49.626;9.680;2023-11-21T03:22:08;9.70;98.70
298;DHT22;133;49.626;9.680;2023-11-21T03:24:34;9.70;98.70
298;DHT22;133;49.626;9.680;2023-11-21T03:27:00;9.70;98.70
298;DHT22;133;49.626;9.680;2023-11-21T03:29:25;9.60;98.70
298;DHT22;133;49.626;9.680;2023-11-21T03:31:51;9.60;98.70
298;DHT22;133;49.626;9.680;2023-11-21T03:34:24;9.60;98.70
298;DHT22;133;49.626;9.680;2023-11-21T03:36:51;9.70;98.70
298;DHT22;133;49.626;9.680;2023-11-21T03:39:18;9.70;98.70
298;DHT22;133;49.626;9.680;2023-11-21T03:41:44;9.70;98.70
298;DHT22;133;49.626;9.680;2023-11-21T03:44:09;9.70;98.70
298;DHT22;133;49.626;9.680;2023-11-21T03:46:35;9.70;98.70
298;DHT22;133;49.626;9.680;2023-11-21T03:49:01;9.70;98.70
298;DHT22;133;49.626;9.680;2023-11-21T03:51:27;9.70;98.70
298;DHT22;133;49.626;9.680;2023-11-21T03:53:52;9.70;98.70
298;DHT22;133;49.626;9.680;2023-11-21T03:56:18;9.80;98.70
298;DHT22;133;49.626;9.680;2023-11-21T03:58:43;9.80;98.70
298;DHT22;133;49.626;9.680;2023-11-21T04:01:09;9.80;98.70
298;DHT22;133;49.626;9.680;2023-11-21T04:03:34;9.80;98.70
298;DHT22;133;49.626;9.680;2023-11-21T04:06:01;9.80;98.70
298;DHT22;133;49.626;9.680;2023-11-21T04:08:26;9.80;98.70
298;DHT22;133;49.626;9.680;2023-11-21T04:10:52;9.80;98.70
298;DHT22;133;49.626;9.680;2023-11-21T04:13:19;9.80;98.70
298;DHT22;133;49.626;9.680;2023-11-21T04:15:44;9.90;98.70
298;DHT22;133;49.626;9.680;2023-11-21T04:18:10;9.80;98.70
298;DHT22;133;49.626;9.680;2023-11-21T04:20:35;9.90;98.70
298;DHT22;133;49.626;9.680;2023-11-21T04:23:01;9.90;98.70
298;DHT22;133;49.626;9.680;2023-11-21T04:25:26;9.90;98.70
298;DHT22;133;49.626;9.680;2023-11-21T04:27:53;9.90;98.70
298;DHT22;133;49.626;9.680;2023-11-21T04:30:19;9.90;98.70
298;DHT22;133;49.626;9.680;2023-11-21T04:32:46;9.90;98.70
298;DHT22;133;49.626;9.680;2023-11-21T04:35:11;9.90;98.70
298;DHT22;133;49.626;9.680;2023-11-21T04:37:37;9.80;98.70
298;DHT22;133;49.626;9.680;2023-11-21T04:40:03;9.80;98.70
298;DHT22;133;49.626;9.680;2023-11-21T04:42:36;9.70;98.70
298;DHT22;133;49.626;9.680;2023-11-21T04:45:03;9.70;98.70
298;DHT22;133;49.626;9.680;2023-11-21T04:47:33;9.70;98.70
298;DHT22;133;49.626;9.680;2023-11-21T04:49:59;9.70;98.70
298;DHT22;133;49.626;9.680;2023-11-21T04:52:24;9.70;98.70
298;DHT22;133;49.626;9.680;2023-11-21T04:54:50;9.70;98.70
298;DHT22;133;49.626;9.680;2023-11-21T04:57:15;9.70;98.70
298;DHT22;133;49.626;9.680;2023-11-21T04:59:43;9.70;98.70
298;DHT22;133;49.626;9.680;2023-11-21T05:02:09;9.80;98.70
298;DHT22;133;49.626;9.680;2023-11-21T05:04:34;9.70;98.70
298;DHT22;133;49.626;9.680;2023-11-21T05:07:00;9.70;98.70
298;DHT22;133;49.626;9.680;2023-11-21T05:09:26;9.70;98.70
298;DHT22;133;49.626;9.680;2023-11-21T05:11:54;9.70;98.70
298;DHT22;133;49.626;9.680;2023-11-21T05:14:19;9.80;98.70
298;DHT22;133;49.626;9.680;2023-11-21T05:16:45;9.70;98.70
298;DHT22;133;49.626;9.680;2023-11-21T05:19:11;9.70;98.70
298;DHT22;133;49.626;9.680;2023-11-21T05:21:38;9.70;98.70
298;DHT22;133;49.626;9.680;2023-11-21T05:24:04;9.70;98.70
298;DHT22;133;49.626;9.680;2023-11-21T05:26:30;9.70;98.70
298;DHT22;133;49.626;9.680;2023-11-21T05:28:56;9.70;98.70
298;DHT22;133;49.626;9.680;2023-11-21T05:31:22;9.70;98.70
298;DHT22;133;49.626;9.680;2023-11-21T05:33:47;9.70;98.70
298;DHT22;133;49.626;9.680;2023-11-21T05:36:13;9.70;98.70
298;DHT22;133;49.626;9.680;2023-11-21T05:38:38;9.70;98.70
298;DHT22;133;49.626;9.680;2023-11-21T05:41:04;9.70;98.70
298;DHT22;133;49.626;9.680;2023-11-21T05:43:30;9.70;98.70
298;DHT22;133;49.626;9.680;2023-11-21T05:45:56;9.80;98.70
298;DHT22;133;49.626;9.680;2023-11-21T05:48:22;9.80;98.70
298;DHT22;133;49.626;9.680;2023-11-21T05:50:48;9.80;98.70
298;DHT22;133;49.626;9.680;2023-11-21T05:53:15;9.80;98.70
298;DHT22;133;49.626;9.680;2023-11-21T05:55:41;9.80;98.70
298;DHT22;133;49.626;9.680;2023-11-21T05:58:07;9.70;98.70
298;DHT22;133;49.626;9.680;2023-11-21T06:00:33;9.70;98.70
298;DHT22;133;49.626;9.680;2023-11-21T06:02:59;9.60;98.70
298;DHT22;133;49.626;9.680;2023-11-21T06:05:25;9.60;98.70
298;DHT22;133;49.626;9.680;2023-11-21T06:07:52;9.70;98.70
298;DHT22;133;49.626;9.680;2023-11-21T06:10:20;9.70;98.70
298;DHT22;133;49.626;9.680;2023-11-21T06:12:45;9.80;98.70
298;DHT22;133;49.626;9.680;2023-11-21T06:15:11;9.70;98.70
298;DHT22;133;49.626;9.680;2023-11-21T06:17:41;9.70;98.70
298;DHT22;133;49.626;9.680;2023-11-21T06:20:08;9.70;98.70
298;DHT22;133;49.626;9.680;2023-11-21T06:22:38;9.80;98.70
298;DHT22;133;49.626;9.680;2023-11-21T06:25:05;9.80;98.70
298;DHT22;133;49.626;9.680;2023-11-21T06:27:37;9.80;98.70
298;DHT22;133;49.626;9.680;2023-11-21T06:30:03;9.80;98.70
298;DHT22;133;49.626;9.680;2023-11-21T06:32:29;9.80;98.70
298;DHT22;133;49.626;9.680;2023-11-21T06:34:56;9.80;98.70
298;DHT22;133;49.626;9.680;2023-11-21T06:37:21;9.80;98.70
298;DHT22;133;49.626;9.680;2023-11-21T06:39:49;9.80;98.70
298;DHT22;133;49.626;9.680;2023-11-21T06:42:15;9.70;98.70
298;DHT22;133;49.626;9.680;2023-11-21T06:44:41;9.70;98.70
298;DHT22;133;49.626;9.680;2023-11-21T06:47:07;9.70;98.70
298;DHT22;133;49.626;9.680;2023-11-21T06:49:32;9.80;98.70
298;DHT22;133;49.626;9.680;2023-11-21T06:51:58;9.70;98.70
298;DHT22;133;49.626;9.680;2023-11-21T06:54:24;9.80;98.70
298;DHT22;133;49.626;9.680;2023-11-21T06:56:50;9.80;98.70
298;DHT22;133;49.626;9.680;2023-11-21T06:59:15;9.80;98.70
298;DHT22;133;49.626;9.680;2023-11-21T07:01:41;9.80;98.70
298;DHT22;133;49.626;9.680;2023-11-21T07:04:07;9.80;98.70
298;DHT22;133;49.626;9.680;2023-11-21T07:06:34;9.80;98.70
298;DHT22;133;49.626;9.680;2023-11-21T07:09:00;9.80;98.70
298;DHT22;133;49.626;9.680;2023-11-21T07:11:27;9.90;98.70
298;DHT22;133;49.626;9.680;2023-11-21T07:13:52;9.90;98.70
298;DHT22;133;49.626;9.680;2023-11-21T07:16:18;9.90;98.70
298;DHT22;133;49.626;9.680;2023-11-21T07:18:44;10.00;98.70
298;DHT22;133;49.626;9.680;2023-11-21T07:21:10;10.00;98.70
298;DHT22;133;49.626;9.680;2023-11-21T07:23:37;10.00;98.70
298;DHT22;133;49.626;9.680;2023-11-21T07:26:03;10.00;98.70
298;DHT22;133;49.626;9.680;2023-11-21T07:28:31;10.00;98.70
298;DHT22;133;49.626;9.680;2023-11-21T07:31:00;10.00;98.70
298;DHT22;133;49.626;9.680;2023-11-21T07:33:25;10.00;98.70
298;DHT22;133;49.626;9.680;2023-11-21T07:35:51;10.00;98.70
298;DHT22;133;49.626;9.680;2023-11-21T07:38:17;10.00;98.70
298;DHT22;133;49.626;9.680;2023-11-21T07:40:46;10.00;98.70
298;DHT22;133;49.626;9.680;2023-11-21T07:43:11;10.10;98.70
298;DHT22;133;49.626;9.680;2023-11-21T07:45:37;10.10;98.70
298;DHT22;133;49.626;9.680;2023-11-21T07:48:03;10.10;98.70
298;DHT22;133;49.626;9.680;2023-11-21T07:50:30;10.10;98.70
298;DHT22;133;49.626;9.680;2023-11-21T07:52:56;10.10;98.70
298;DHT22;133;49.626;9.680;2023-11-21T07:55:23;10.10;98.70
298;DHT22;133;49.626;9.680;2023-11-21T07:57:50;10.10;98.70
298;DHT22;133;49.626;9.680;2023-11-21T08:00:18;10.10;98.70
298;DHT22;133;49.626;9.680;2023-11-21T08:02:46;10.10;98.70
298;DHT22;133;49.626;9.680;2023-11-21T08:05:12;10.20;98.70
298;DHT22;133;49.626;9.680;2023-11-21T08:07:38;10.20;98.70
298;DHT22;133;49.626;9.680;2023-11-21T08:10:04;10.20;98.70
298;DHT22;133;49.626;9.680;2023-11-21T08:12:30;10.20;98.70
298;DHT22;133;49.626;9.680;2023-11-21T08:14:56;10.20;98.60
298;DHT22;133;49.626;9.680;2023-11-21T08:17:21;10.20;98.70
298;DHT22;133;49.626;9.680;2023-11-21T08:19:48;9.90;98.70
298;DHT22;133;49.626;9.680;2023-11-21T08:22:15;9.90;98.70
298;DHT22;133;49.626;9.680;2023-11-21T08:24:43;9.80;98.70
298;DHT22;133;49.626;9.680;2023-11-21T08:27:09;9.80;98.70
298;DHT22;133;49.626;9.680;2023-11-21T08:29:34;9.80;98.70
298;DHT22;133;49.626;9.680;2023-11-21T08:32:02;9.90;98.70
298;DHT22;133;49.626;9.680;2023-11-21T08:34:27;9.90;98.70
298;DHT22;133;49.626;9.680;2023-11-21T08:36:54;9.80;98.70
298;DHT22;133;49.626;9.680;2023-11-21T08:39:21;9.60;98.70
298;DHT22;133;49.626;9.680;2023-11-21T08:41:52;9.60;98.70
298;DHT22;133;49.626;9.680;2023-11-21T08:44:17;9.70;98.70
298;DHT22;133;49.626;9.680;2023-11-21T08:46:48;9.60;98.70
298;DHT22;133;49.626;9.680;2023-11-21T08:49:14;9.70;98.70
298;DHT22;133;49.626;9.680;2023-11-21T08:51:40;9.80;98.70
298;DHT22;133;49.626;9.680;2023-11-21T08:54:06;9.90;98.70
298;DHT22;133;49.626;9.680;2023-11-21T08:56:35;10.00;98.70
298;DHT22;133;49.626;9.680;2023-11-21T08:59:00;10.10;98.70
298;DHT22;133;49.626;9.680;2023-11-21T09:01:28;10.00;98.70
298;DHT22;133;49.626;9.680;2023-11-21T09:03:53;10.00;98.70
298;DHT22;133;49.626;9.680;2023-11-21T09:06:19;10.00;98.70
298;DHT22;133;49.626;9.680;2023-11-21T09:08:44;10.10;98.70
298;DHT22;133;49.626;9.680;2023-11-21T09:11:10;10.10;98.70
298;DHT22;133;49.626;9.680;2023-11-21T09:13:36;10.20;98.70
298;DHT22;133;49.626;9.680;2023-11-21T09:16:02;10.30;98.70
298;DHT22;133;49.626;9.680;2023-11-21T09:18:27;10.30;98.70
298;DHT22;133;49.626;9.680;2023-11-21T09:20:53;10.40;98.70
298;DHT22;133;49.626;9.680;2023-11-21T09:23:18;10.60;98.70
298;DHT22;133;49.626;9.680;2023-11-21T09:25:44;10.70;98.70
298;DHT22;133;49.626;9.680;2023-11-21T09:28:11;10.80;98.70
298;DHT22;133;49.626;9.680;2023-11-21T09:30:37;10.90;98.70
298;DHT22;133;49.626;9.680;2023-11-21T09:33:04;11.00;98.70
298;DHT22;133;49.626;9.680;2023-11-21T09:35:32;11.10;98.70
298;DHT22;133;49.626;9.680;2023-11-21T09:37:58;11.10;98.20
298;DHT22;133;49.626;9.680;2023-11-21T09:40:24;11.20;98.70
298;DHT22;133;49.626;9.680;2023-11-21T09:42:54;11.30;98.30
298;DHT22;133;49.626;9.680;2023-11-21T09:45:32;11.40;97.40
298;DHT22;133;49.626;9.680;2023-11-21T09:48:00;11.20;98.00
298;DHT22;133;49.626;9.680;2023-11-21T09:50:26;11.20;97.90
298;DHT22;133;49.626;9.680;2023-11-21T09:53:07;11.30;98.00
298;DHT22;133;49.626;9.680;2023-11-21T09:55:37;11.30;98.10
298;DHT22;133;49.626;9.680;2023-11-21T09:58:04;11.40;98.00
298;DHT22;133;49.626;9.680;2023-11-21T10:00:33;11.40;97.70
298;DHT22;133;49.626;9.680;2023-11-21T10:02:59;11.40;97.90
298;DHT22;133;49.626;9.680;2023-11-21T10:05:25;11.50;97.80
298;DHT22;133;49.626;9.680;2023-11-21T10:07:51;11.50;97.00
298;DHT22;133;49.626;9.680;2023-11-21T10:10:19;11.30;97.30
298;DHT22;133;49.626;9.680;2023-11-21T10:12:50;11.30;97.10
298;DHT22;133;49.626;9.680;2023-11-21T10:15:21;11.30;97.50
298;DHT22;133;49.626;9.680;2023-11-21T10:17:49;11.30;97.50
298;DHT22;133;49.626;9.680;2023-11-21T10:20:15;11.20;97.50
298;DHT22;133;49.626;9.680;2023-11-21T10:22:42;11.30;97.90
298;DHT22;133;49.626;9.680;2023-11-21T10:25:11;11.40;97.50
298;DHT22;133;49.626;9.680;2023-11-21T10:27:40;11.40;96.90
298;DHT22;133;49.626;9.680;2023-11-21T10:30:07;11.40;96.90
298;DHT22;133;49.626;9.680;2023-11-21T10:32:40;11.40;97.00
298;DHT22;133;49.626;9.680;2023-11-21T10:35:07;11.40;96.70
298;DHT22;133;49.626;9.680;2023-11-21T10:37:36;11.40;96.90
298;DHT22;133;49.626;9.680;2023-11-21T10:40:07;11.50;97.10
298;DHT22;133;49.626;9.680;2023-11-21T10:42:40;11.60;96.70
298;DHT22;133;49.626;9.680;2023-11-21T10:45:07;11.60;96.50
298;DHT22;133;49.626;9.680;2023-11-21T10:47:42;11.70;96.40
298;DHT22;133;49.626;9.680;2023-11-21T10:50:09;11.90;96.40
298;DHT22;133;49.626;9.680;2023-11-21T10:52:42;12.00;95.70
298;DHT22;133;49.626;9.680;2023-11-21T10:55:20;11.90;95.10
298;DHT22;133;49.626;9.680;2023-11-21T10:57:49;12.00;95.20
298;DHT22;133;49.626;9.680;2023-11-21T11:00:16;11.90;95.10
298;DHT22;133;49.626;9.680;2023-11-21T11:02:49;12.00;95.20
298;DHT22;133;49.626;9.680;2023-11-21T11:05:19;12.10;94.90
298;DHT22;133;49.626;9.680;2023-11-21T11:07:48;12.10;94.50
298;DHT22;133;49.626;9.680;2023-11-21T11:10:18;12.20;94.20
298;DHT22;133;49.626;9.680;2023-11-21T11:12:47;12.30;94.20
298;DHT22;133;49.626;9.680;2023-11-21T11:15:13;12.40;94.40
298;DHT22;133;49.626;9.680;2023-11-21T11:17:39;12.50;93.90
298;DHT22;133;49.626;9.680;2023-11-21T11:20:06;12.60;93.30
298;DHT22;133;49.626;9.680;2023-11-21T11:22:48;12.60;92.30
298;DHT22;133;49.626;9.680;2023-11-21T11:25:35;12.50;91.40
298;DHT22;133;49.626;9.680;2023-11-21T11:28:19;12.30;91.80
298;DHT22;133;49.626;9.680;2023-11-21T11:30:48;12.00;93.10
298;DHT22;133;49.626;9.680;2023-11-21T11:36:26;11.70;94.40
298;DHT22;133;49.626;9.680;2023-11-21T11:38:54;11.80;94.50
298;DHT22;133;49.626;9.680;2023-11-21T11:41:30;11.60;94.90
298;DHT22;133;49.626;9.680;2023-11-21T11:43:58;11.60;95.20
298;DHT22;133;49.626;9.680;2023-11-21T11:46:44;11.60;95.00
298;DHT22;133;49.626;9.680;2023-11-21T11:49:28;11.60;95.00
298;DHT22;133;49.626;9.680;2023-11-21T11:54:56;11.70;94.10
298;DHT22;133;49.626;9.680;2023-11-21T11:57:25;11.70;93.30
298;DHT22;133;49.626;9.680;2023-11-21T12:02:42;11.70;94.20
298;DHT22;133;49.626;9.680;2023-11-21T12:05:14;11.50;94.60
298;DHT22;133;49.626;9.680;2023-11-21T12:07:49;11.60;94.20
298;DHT22;133;49.626;9.680;2023-11-21T12:10:16;11.70;94.90
298;DHT22;133;49.626;9.680;2023-11-21T12:12:50;11.80;93.70
298;DHT22;133;49.626;9.680;2023-11-21T12:15:18;11.90;94.10
298;DHT22;133;49.626;9.680;2023-11-21T12:17:44;12.10;94.40
298;DHT22;133;49.626;9.680;2023-11-21T12:20:11;12.20;94.20
298;DHT22;133;49.626;9.680;2023-11-21T12:22:44;12.40;93.40
298;DHT22;133;49.626;9.680;2023-11-21T12:25:16;12.50;92.70
298;DHT22;133;49.626;9.680;2023-11-21T12:27:48;12.50;91.80
298;DHT22;133;49.626;9.680;2023-11-21T12:30:19;12.50;92.00
298;DHT22;133;49.626;9.680;2023-11-21T12:32:48;12.70;91.80
298;DHT22;133;49.626;9.680;2023-11-21T12:35:14;12.70;91.30
298;DHT22;133;49.626;9.680;2023-11-21T12:37:42;12.70;91.80
298;DHT22;133;49.626;9.680;2023-11-21T12:40:11;12.80;91.70
298;DHT22;133;49.626;9.680;2023-11-21T12:42:41;12.90;91.10
298;DHT22;133;49.626;9.680;2023-11-21T12:47:54;13.00;90.30
298;DHT22;133;49.626;9.680;2023-11-21T12:50:22;13.00;89.80
298;DHT22;133;49.626;9.680;2023-11-21T12:52:53;13.10;89.80
298;DHT22;133;49.626;9.680;2023-11-21T12:55:22;13.10;90.00
298;DHT22;133;49.626;9.680;2023-11-21T12:57:52;13.00;89.10
298;DHT22;133;49.626;9.680;2023-11-21T13:00:27;13.10;89.40
298;DHT22;133;49.626;9.680;2023-11-21T13:02:57;13.20;89.10
298;DHT22;133;49.626;9.680;2023-11-21T13:05:32;12.90;88.80
298;DHT22;133;49.626;9.680;2023-11-21T13:08:03;13.00;88.80
298;DHT22;133;49.626;9.680;2023-11-21T13:10:31;13.10;88.70
298;DHT22;133;49.626;9.680;2023-11-21T13:12:58;13.00;87.80
298;DHT22;133;49.626;9.680;2023-11-21T13:15:27;12.90;88.30
298;DHT22;133;49.626;9.680;2023-11-21T13:17:53;12.60;89.10
298;DHT22;133;49.626;9.680;2023-11-21T13:20:19;12.40;90.40
298;DHT22;133;49.626;9.680;2023-11-21T13:22:56;12.40;89.90
298;DHT22;133;49.626;9.680;2023-11-21T13:25:27;12.30;90.20
298;DHT22;133;49.626;9.680;2023-11-21T13:27:59;12.40;90.90
298;DHT22;133;49.626;9.680;2023-11-21T13:30:26;12.70;90.40
298;DHT22;133;49.626;9.680;2023-11-21T13:32:53;13.00;87.90
298;DHT22;133;49.626;9.680;2023-11-21T13:35:23;13.40;86.60
298;DHT22;133;49.626;9.680;2023-11-21T13:37:56;13.70;85.20
298;DHT22;133;49.626;9.680;2023-11-21T13:40:24;14.20;84.70
298;DHT22;133;49.626;9.680;2023-11-21T13:42:54;14.50;79.70
298;DHT22;133;49.626;9.680;2023-11-21T13:45:23;14.40;79.70
298;DHT22;133;49.626;9.680;2023-11-21T13:47:51;14.20;78.70
298;DHT22;133;49.626;9.680;2023-11-21T13:50:20;14.30;80.70
298;DHT22;133;49.626;9.680;2023-11-21T13:52:51;14.70;80.50
298;DHT22;133;49.626;9.680;2023-11-21T13:55:19;15.00;80.20
298;DHT22;133;49.626;9.680;2023-11-21T13:57:45;14.70;79.30
298;DHT22;133;49.626;9.680;2023-11-21T14:00:15;15.00;78.80
298;DHT22;133;49.626;9.680;2023-11-21T14:03:01;15.20;77.70
298;DHT22;133;49.626;9.680;2023-11-21T14:05:30;15.00;76.70
298;DHT22;133;49.626;9.680;2023-11-21T14:07:57;14.90;77.10
298;DHT22;133;49.626;9.680;2023-11-21T14:10:29;14.70;76.90
298;DHT22;133;49.626;9.680;2023-11-21T14:13:02;14.50;77.60
298;DHT22;133;49.626;9.680;2023-11-21T14:15:28;14.10;77.90
298;DHT22;133;49.626;9.680;2023-11-21T14:17:54;13.70;78.90
298;DHT22;133;49.626;9.680;2023-11-21T14:20:20;13.50;80.10
298;DHT22;133;49.626;9.680;2023-11-21T14:22:46;13.40;79.70
298;DHT22;133;49.626;9.680;2023-11-21T14:25:12;13.20;81.10
298;DHT22;133;49.626;9.680;2023-11-21T14:27:39;12.90;81.80
298;DHT22;133;49.626;9.680;2023-11-21T14:30:05;12.60;83.10
298;DHT22;133;49.626;9.680;2023-11-21T14:32:31;12.50;83.90
298;DHT22;133;49.626;9.680;2023-11-21T14:34:57;12.30;84.70
298;DHT22;133;49.626;9.680;2023-11-21T14:37:23;12.10;85.30
298;DHT22;133;49.626;9.680;2023-11-21T14:39:49;12.20;85.30
298;DHT22;133;49.626;9.680;2023-11-21T14:42:15;12.20;85.60
298;DHT22;133;49.626;9.680;2023-11-21T14:44:41;12.30;85.30
298;DHT22;133;49.626;9.680;2023-11-21T14:47:08;12.10;85.90
298;DHT22;133;49.626;9.680;2023-11-21T14:49:43;12.10;85.80
298;DHT22;133;49.626;9.680;2023-11-21T14:52:24;12.20;85.50
298;DHT22;133;49.626;9.680;2023-11-21T14:55:03;12.10;86.40
298;DHT22;133;49.626;9.680;2023-11-21T14:57:46;12.10;86.20
298;DHT22;133;49.626;9.680;2023-11-21T15:00:19;12.00;87.20
298;DHT22;133;49.626;9.680;2023-11-21T15:03:04;11.90;87.00
298;DHT22;133;49.626;9.680;2023-11-21T15:05:30;11.80;86.70
298;DHT22;133;49.626;9.680;2023-11-21T15:07:56;11.80;84.80
298;DHT22;133;49.626;9.680;2023-11-21T15:10:33;11.70;85.20
298;DHT22;133;49.626;9.680;2023-11-21T15:13:12;11.60;85.30
298;DHT22;133;49.626;9.680;2023-11-21T15:15:38;11.50;85.90
298;DHT22;133;49.626;9.680;2023-11-21T15:18:05;11.60;85.90
298;DHT22;133;49.626;9.680;2023-11-21T15:20:30;11.40;86.10
298;DHT22;133;49.626;9.680;2023-11-21T15:22:56;11.30;86.60
298;DHT22;133;49.626;9.680;2023-11-21T15:25:22;11.20;87.10
298;DHT22;133;49.626;9.680;2023-11-21T15:27:47;11.30;86.80
298;DHT22;133;49.626;9.680;2023-11-21T15:30:15;11.10;87.40
298;DHT22;133;49.626;9.680;2023-11-21T15:32:45;11.10;87.50
298;DHT22;133;49.626;9.680;2023-11-21T15:35:11;11.00;88.10
298;DHT22;133;49.626;9.680;2023-11-21T15:37:40;10.90;88.60
298;DHT22;133;49.626;9.680;2023-11-21T15:40:05;11.00;88.30
298;DHT22;133;49.626;9.680;2023-11-21T15:42:34;11.00;88.10
298;DHT22;133;49.626;9.680;2023-11-21T15:45:01;10.90;88.40
298;DHT22;133;49.626;9.680;2023-11-21T15:47:26;10.90;88.50
298;DHT22;133;49.626;9.680;2023-11-21T15:49:52;10.90;88.50
298;DHT22;133;49.626;9.680;2023-11-21T15:52:18;10.80;88.50
298;DHT22;133;49.626;9.680;2023-11-21T15:54:44;10.80;88.90
298;DHT22;133;49.626;9.680;2023-11-21T15:57:11;10.80;88.70
298;DHT22;133;49.626;9.680;2023-11-21T15:59:39;10.60;89.20
298;DHT22;133;49.626;9.680;2023-11-21T16:02:07;10.40;89.30
298;DHT22;133;49.626;9.680;2023-11-21T16:04:33;10.30;89.50
298;DHT22;133;49.626;9.680;2023-11-21T16:07:01;10.40;89.60
298;DHT22;133;49.626;9.680;2023-11-21T16:09:27;10.40;89.50
298;DHT22;133;49.626;9.680;2023-11-21T16:12:00;10.40;89.10
298;DHT22;133;49.626;9.680;2023-11-21T16:14:30;10.40;89.10
298;DHT22;133;49.626;9.680;2023-11-21T16:17:01;10.40;89.50
298;DHT22;133;49.626;9.680;2023-11-21T16:19:27;10.30;89.40
298;DHT22;133;49.626;9.680;2023-11-21T16:21:53;10.30;89.80
298;DHT22;133;49.626;9.680;2023-11-21T16:24:19;10.40;89.60
298;DHT22;133;49.626;9.680;2023-11-21T16:26:45;10.40;89.30
298;DHT22;133;49.626;9.680;2023-11-21T16:29:12;10.40;89.40
298;DHT22;133;49.626;9.680;2023-11-21T16:31:41;10.40;89.20
298;DHT22;133;49.626;9.680;2023-11-21T16:34:16;10.20;89.70
298;DHT22;133;49.626;9.680;2023-11-21T16:36:42;10.10;90.10
298;DHT22;133;49.626;9.680;2023-11-21T16:39:12;10.00;90.50
298;DHT22;133;49.626;9.680;2023-11-21T16:41:41;10.00;90.50
298;DHT22;133;49.626;9.680;2023-11-21T16:44:17;10.00;90.40
298;DHT22;133;49.626;9.680;2023-11-21T16:46:50;10.00;90.20
298;DHT22;133;49.626;9.680;2023-11-21T16:49:18;9.80;90.80
298;DHT22;133;49.626;9.680;2023-11-21T16:51:45;9.90;90.80
298;DHT22;133;49.626;9.680;2023-11-21T16:54:11;9.90;90.90
298;DHT22;133;49.626;9.680;2023-11-21T16:56:37;9.90;91.40